DuBois Regional Airport
KDUJ : now visible

Airfield :











YOU CAN JOIN US ON...

 
LOGIN :

Register | Disclaimer

   EN    FR    IT 

 









Legend :    VFR   Marginal VFR   IFR   Intensive IFR   Very Intensive IFR
Visi :
Ceiling :
>= 8 km
>= 3000ft
5 to 8 km
1000 to 3000 ft
1500m to 5 km
500 to 1000 ft
800 to 1500m
200 to 500 ft
< 800m
< 200 ft
Symbols :   Thunderstorms  Fog  Heavy snow  Heavy precipitations  Wind > 20 kt






- Airport Elevation : 1817 ft
- IATA code : DUJ


KDUJ - DuBois Regional

CURRENT METAR :
  • 170853Z AUTO 26009KT 10SM BKN009 OVC013 M02/M04 A2955 RMK AO2 CIG 007V011 SLP024 T10221044 51008

EXPIRED METARs :
  • 170837Z AUTO 25012KT 10SM OVC009 M02/M04 A2955 RMK AO2 CIG 007V013 T10221044
  • 170753Z AUTO 26012KT 10SM BKN014 OVC024 M02/M06 A2955 RMK AO2 SLP024 T10221056
  • 170712Z AUTO 25012G20KT 10SM BKN018 OVC041 M02/M06 A2954 RMK AO2 T10221061
  • 170653Z AUTO 26009G19KT 10SM BKN035 OVC044 M02/M06 A2954 RMK AO2 SLP019 T10221061
  • 170625Z AUTO 27013KT 10SM OVC031 M02/M07 A2953 RMK AO2 T10221067
  • 170618Z AUTO 26015KT 10SM OVC029 M02/M07 A2953 RMK AO2 T10221067

TAF KDUJ
Valid from the 17 at 06:00 until the 18 at 06:00 UTC


170521Z 1706/1806 25010G20KT P6SM -SHSN OVC015
FM171500 25010G20KT P6SM VCSH OVC015
FM172200 24010KT 4SM -SHSN OVC015
FM180100 24005KT 1 1/2SM -SHSN OVC008
KZOB FIR / North America



MET'MAP, your aeronautical weather chart ! - Copyright ORBIFLY December 2007 - Disclaimer

ORBIFLY MET'MAP TEAM :

Programming & Development : Alexandra Zaïnal
Concept & original design : Baudouin d'Aumeries
Assistance for programming : Marc-Olivier Méhu
Technical & hardware support : Manuel Goepfert

Contact : metmap@orbifly.com




SOURCES & CREDITS :

   NOAA       Earth
Advisory